Time;durP1;ratioP1;P1;durP2;ratioP2;P2;SDS_P1;SDS_P2;PMS_P1;PMS_P2;Temp;Humidity;BMP_temperature;BMP_pressure;BME280_temperature;BME280_humidity;BME280_pressure;Samples;Min_cycle;Max_cycle;Signal;HPM_P1;HPM_P2
2022/12/09 00:01:58;;;;;;;;;;;;;;;-144.99;100.00;52623.38;5007096;28;20003;-73
2022/12/09 00:04:24;;;;;;;;;;;;;;;-144.99;100.00;52684.53;5007624;28;20644;-73
2022/12/09 00:06:52;;;;;;;;;;;;;;;-144.99;100.00;52643.78;5007281;28;19934;-73
2022/12/09 00:09:19;;;;;;;;;;;;;;;-144.99;100.00;52690.66;5005570;28;20715;-73
2022/12/09 00:11:45;;;;;;;;;;;;;;;-144.99;100.00;52668.22;4998898;28;19996;-75
2022/12/09 00:14:12;;;;;;;;;;;;;;;-144.99;100.00;52656.00;5006924;28;20452;-73
2022/12/09 00:16:39;;;;;;;;;;;;;;;-144.99;100.00;52676.38;5006649;28;19936;-73
2022/12/09 00:19:06;;;;;;;;;;;;;;;-144.99;100.00;52664.16;5006322;28;19988;-74
2022/12/09 00:21:33;;;;;;;;;;;;;;;-144.99;100.00;52660.09;5005449;28;19965;-72
2022/12/09 00:24:02;;;;;;;;;;;;;;;-144.99;100.00;52676.38;5000129;28;19929;-74
2022/12/09 00:26:28;;;;;;;;;;;;;;;-144.99;100.00;52631.53;4658867;28;10000033;-74
2022/12/09 00:28:55;;;;;;;;;;;;;;;-144.99;100.00;52660.09;5005098;28;19976;-74
2022/12/09 00:31:23;;;;;;;;;;;;;;;-144.99;100.00;52668.22;5004918;28;20372;-75
2022/12/09 00:33:50;;;;;;;;;;;;;;;-144.99;100.00;52696.78;5005817;28;20448;-73
2022/12/09 00:36:18;;;;;;;;;;;;;;;-144.99;100.00;52651.94;5038371;23;19930;-72
2022/12/09 00:38:44;;;;;;;;;;;;;;;-144.99;100.00;52647.84;5016554;28;20319;-72
2022/12/09 00:41:12;;;;;;;;;;;;;;;-144.99;100.00;52619.31;5000747;28;19929;-71
2022/12/09 00:43:39;;;;;;;;;;;;;;;-144.99;100.00;52680.47;5007037;28;19969;-75
2022/12/09 00:46:06;;;;;;;;;;;;;;;-144.99;100.00;52641.72;5016302;28;20356;-75
2022/12/09 00:48:33;;;;;;;;;;;;;;;-144.99;100.00;52664.16;5017367;28;20342;-74
2022/12/09 00:51:00;;;;;;;;;;;;;;;-144.99;100.00;52645.81;5017658;28;20245;-72
2022/12/09 00:53:26;;;;;;;;;;;;;;;-144.99;100.00;52643.78;5008531;28;19953;-72
2022/12/09 00:55:53;;;;;;;;;;;;;;;-144.99;100.00;52680.47;5009662;28;20247;-71
2022/12/09 00:58:20;;;;;;;;;;;;;;;-144.99;100.00;52660.09;5014702;28;19942;-71
2022/12/09 01:00:47;;;;;;;;;;;;;;;-144.99;100.00;52664.16;5036371;28;19909;-74
2022/12/09 01:03:14;;;;;;;;;;;;;;;-144.99;100.00;52651.94;5017405;28;19943;-71
2022/12/09 01:05:41;;;;;;;;;;;;;;;-144.99;100.00;52647.84;5011845;28;20044;-73
2022/12/09 01:08:07;;;;;;;;;;;;;;;-144.99;100.00;52688.63;5014551;28;20324;-72
2022/12/09 01:10:34;;;;;;;;;;;;;;;-144.99;100.00;52668.22;5009320;28;20003;-71
2022/12/09 01:13:01;;;;;;;;;;;;;;;-144.99;100.00;52627.47;5011258;28;19939;-72
2022/12/09 01:15:29;;;;;;;;;;;;;;;-144.99;100.00;52656.00;4999342;28;20016;-72
2022/12/09 01:17:55;;;;;;;;;;;;;;;-144.99;100.00;52639.69;5011498;28;20398;-72
2022/12/09 01:20:22;;;;;;;;;;;;;;;-144.99;100.00;52629.50;5017450;28;19930;-72
2022/12/09 01:22:49;;;;;;;;;;;;;;;-144.99;100.00;52664.16;5014069;28;19949;-72
2022/12/09 01:25:15;;;;;;;;;;;;;;;-144.99;100.00;52631.53;5004762;28;19941;-72
2022/12/09 01:27:42;;;;;;;;;;;;;;;-144.99;100.00;52656.00;5006376;28;20007;-76
2022/12/09 01:30:10;;;;;;;;;;;;;;;-144.99;100.00;52643.78;5015717;28;19974;-75
2022/12/09 01:32:38;;;;;;;;;;;;;;;-144.99;100.00;52676.38;5016194;28;19941;-74
2022/12/09 01:35:05;;;;;;;;;;;;;;;-144.99;100.00;52651.94;5005802;28;19933;-78
2022/12/09 01:37:31;;;;;;;;;;;;;;;-144.99;100.00;52639.69;5020581;28;19956;-76
2022/12/09 01:39:58;;;;;;;;;;;;;;;-144.99;100.00;52627.47;5036193;28;20000;-76
2022/12/09 01:42:25;;;;;;;;;;;;;;;-144.99;100.00;52660.09;5010165;28;19926;-74
2022/12/09 01:45:11;;;;;;;;;;;;;;;-144.99;100.00;52647.84;5007500;28;19959;-76
2022/12/09 01:47:38;;;;;;;;;;;;;;;-144.99;100.00;52696.78;5005467;28;20323;-74
2022/12/09 01:50:05;;;;;;;;;;;;;;;-144.99;100.00;52668.22;5015017;28;19945;-75
2022/12/09 01:52:32;;;;;;;;;;;;;;;-144.99;100.00;52688.63;5008196;28;19977;-72
2022/12/09 01:54:58;;;;;;;;;;;;;;;-144.99;100.00;52676.38;5006703;28;20004;-73
2022/12/09 01:57:25;;;;;;;;;;;;;;;-144.99;100.00;52672.31;5012101;28;20016;-74
2022/12/09 01:59:52;;;;;;;;;;;;;;;-144.99;100.00;52619.31;5011466;28;19961;-73
2022/12/09 02:02:20;;;;;;;;;;;;;;;-144.99;100.00;52680.47;5014574;28;20199;-73
2022/12/09 02:04:49;;;;;;;;;;;;;;;-144.99;100.00;52635.63;5010891;28;19940;-73
2022/12/09 02:07:15;;;;;;;;;;;;;;;-144.99;100.00;52656.00;5007779;28;19962;-75
2022/12/09 02:09:42;;;;;;;;;;;;;;;-144.99;100.00;52631.53;5013750;28;20023;-73
2022/12/09 02:12:12;;;;;;;;;;;;;;;-144.99;100.00;52647.84;5015453;28;19929;-73
2022/12/09 02:14:40;;;;;;;;;;;;;;;-144.99;100.00;52684.53;5005629;28;20015;-74
2022/12/09 02:17:15;;;;;;;;;;;;;;;-144.99;100.00;52658.03;5018281;28;19945;-74
2022/12/09 02:19:50;;;;;;;;;;;;;;;-144.99;100.00;52635.63;5030565;28;19940;-75
2022/12/09 02:22:21;;;;;;;;;;;;;;;-144.99;100.00;52656.00;5015557;28;19933;-73
2022/12/09 02:24:54;;;;;;;;;;;;;;;-144.99;100.00;52643.78;5013839;28;19926;-74
2022/12/09 02:27:24;;;;;;;;;;;;;;;-144.99;100.00;52664.16;5006012;28;19985;-74
2022/12/09 02:29:59;;;;;;;;;;;;;;;-144.99;100.00;52627.47;5016053;28;20319;-74
2022/12/09 02:32:38;;;;;;;;;;;;;;;-144.99;100.00;52617.28;5014698;28;19987;-75
2022/12/09 02:35:09;;;;;;;;;;;;;;;-144.99;100.00;52664.16;5015363;28;19964;-73
2022/12/09 02:37:39;;;;;;;;;;;;;;;-144.99;100.00;52692.69;5013954;28;19970;-73
2022/12/09 02:40:09;;;;;;;;;;;;;;;-144.99;100.00;52686.59;5016798;28;20462;-75
2022/12/09 02:42:38;;;;;;;;;;;;;;;-144.99;100.00;52615.25;5006619;28;21639;-74
2022/12/09 02:45:07;;;;;;;;;;;;;;;-144.99;100.00;52651.94;5014948;28;19998;-72
2022/12/09 02:47:36;;;;;;;;;;;;;;;-144.99;100.00;52631.53;5010719;28;19961;-73
2022/12/09 02:50:04;;;;;;;;;;;;;;;-144.99;100.00;52594.84;5010981;28;19985;-71
2022/12/09 02:52:34;;;;;;;;;;;;;;;-144.99;100.00;52664.16;5012324;28;20359;-73
2022/12/09 02:55:02;;;;;;;;;;;;;;;-144.99;100.00;52653.97;5014058;28;19980;-72
2022/12/09 02:57:30;;;;;;;;;;;;;;;-144.99;100.00;52664.16;5030002;28;19971;-72
2022/12/09 02:59:56;;;;;;;;;;;;;;;-144.99;100.00;52635.63;5024401;28;20345;-72
2022/12/09 03:02:27;;;;;;;;;;;;;;;-144.99;100.00;52625.44;5011982;28;19929;-76
2022/12/09 03:05:00;;;;;;;;;;;;;;;-144.99;100.00;52678.44;5005359;28;20097;-73
2022/12/09 03:07:31;;;;;;;;;;;;;;;-144.99;100.00;52658.03;5014012;28;19969;-73
2022/12/09 03:10:02;;;;;;;;;;;;;;;-144.99;100.00;52676.38;5015119;28;19933;-71
2022/12/09 03:12:32;;;;;;;;;;;;;;;-144.99;100.00;52635.63;5012728;28;19936;-73
2022/12/09 03:15:00;;;;;;;;;;;;;;;-144.99;100.00;52698.81;5014116;28;20839;-73
2022/12/09 03:17:30;;;;;;;;;;;;;;;-144.99;100.00;52647.84;5014898;28;20052;-73
2022/12/09 03:19:58;;;;;;;;;;;;;;;-144.99;100.00;52627.47;5010024;28;19961;-72
2022/12/09 03:22:28;;;;;;;;;;;;;;;-144.99;100.00;52629.50;5012565;28;19941;-73
2022/12/09 03:24:58;;;;;;;;;;;;;;;-144.99;100.00;52676.38;5012390;28;20454;-74
2022/12/09 03:27:28;;;;;;;;;;;;;;;-144.99;100.00;52639.69;5016219;28;19959;-74
2022/12/09 03:29:55;;;;;;;;;;;;;;;-144.99;100.00;52660.09;5020484;28;19968;-77
2022/12/09 03:32:24;;;;;;;;;;;;;;;-144.99;100.00;52680.47;5023495;28;19949;-75
2022/12/09 03:34:53;;;;;;;;;;;;;;;-144.99;100.00;52617.28;5019491;28;19944;-76
2022/12/09 03:37:21;;;;;;;;;;;;;;;-144.99;100.00;52651.94;5014252;28;19964;-76
2022/12/09 03:39:48;;;;;;;;;;;;;;;-144.99;100.00;52670.28;5025484;28;19943;-75
2022/12/09 03:42:18;;;;;;;;;;;;;;;-144.99;100.00;52645.81;5011509;28;19925;-74
2022/12/09 03:44:49;;;;;;;;;;;;;;;-144.99;100.00;52631.53;5009253;28;19979;-75
2022/12/09 03:47:15;;;;;;;;;;;;;;;-144.99;100.00;52647.84;5003508;28;20325;-74
2022/12/09 03:49:42;;;;;;;;;;;;;;;-144.99;100.00;52676.38;5014102;28;19969;-74
2022/12/09 03:52:11;;;;;;;;;;;;;;;-144.99;100.00;52656.00;5008399;28;20387;-74
2022/12/09 03:54:42;;;;;;;;;;;;;;;-144.99;100.00;52690.66;5014792;28;19942;-77
2022/12/09 03:57:09;;;;;;;;;;;;;;;-144.99;100.00;52641.72;5008960;28;20393;-74
2022/12/09 03:59:35;;;;;;;;;;;;;;;-144.99;100.00;52668.22;5009531;28;19979;-74
2022/12/09 04:02:05;;;;;;;;;;;;;;;-144.99;100.00;52643.78;5012700;28;19946;-75
2022/12/09 04:04:32;;;;;;;;;;;;;;;-144.99;100.00;52647.84;5012905;28;19940;-75
2022/12/09 04:06:59;;;;;;;;;;;;;;;-144.99;100.00;52668.22;5025150;28;19964;-75
2022/12/09 04:09:25;;;;;;;;;;;;;;;-144.99;100.00;52674.34;5025467;28;19960;-75
2022/12/09 04:11:52;;;;;;;;;;;;;;;-144.99;100.00;52684.53;5020806;28;19966;-73
2022/12/09 04:14:18;;;;;;;;;;;;;;;-144.99;100.00;52651.94;5026336;28;19989;-74
2022/12/09 04:16:45;;;;;;;;;;;;;;;-144.99;100.00;52664.16;5036292;28;19979;-74
2022/12/09 04:19:13;;;;;;;;;;;;;;;-144.99;100.00;52651.94;5018961;28;19940;-74
2022/12/09 04:21:39;;;;;;;;;;;;;;;-144.99;100.00;52656.00;5018003;28;19936;-72
2022/12/09 04:24:06;;;;;;;;;;;;;;;-144.99;100.00;52643.78;5020397;28;19926;-72
2022/12/09 04:26:33;;;;;;;;;;;;;;;-144.99;100.00;52647.84;5013162;28;19963;-74
2022/12/09 04:28:59;;;;;;;;;;;;;;;-144.99;100.00;52635.63;5020745;28;19976;-76
2022/12/09 04:31:26;;;;;;;;;;;;;;;-144.99;100.00;52682.50;5028785;28;19909;-74
2022/12/09 04:33:52;;;;;;;;;;;;;;;-144.99;100.00;52643.78;5032996;28;19930;-73
2022/12/09 04:36:20;;;;;;;;;;;;;;;-144.99;100.00;52692.69;5026844;28;19913;-73
2022/12/09 04:38:48;;;;;;;;;;;;;;;-144.99;100.00;52607.09;5030829;28;19926;-73
2022/12/09 04:41:15;;;;;;;;;;;;;;;-144.99;100.00;52680.47;5030388;28;19963;-73
2022/12/09 04:43:41;;;;;;;;;;;;;;;-144.99;100.00;52660.09;5030755;28;19933;-72
2022/12/09 04:46:10;;;;;;;;;;;;;;;-144.99;100.00;52651.94;5029890;28;20042;-73
2022/12/09 04:48:37;;;;;;;;;;;;;;;-144.99;100.00;52656.00;5025986;28;19988;-72
2022/12/09 04:51:04;;;;;;;;;;;;;;;-144.99;100.00;52660.09;5023439;28;19944;-72
2022/12/09 04:53:31;;;;;;;;;;;;;;;-144.99;100.00;52619.31;5025976;28;19947;-73
2022/12/09 04:55:59;;;;;;;;;;;;;;;-144.99;100.00;52676.38;5032397;28;19956;-72
2022/12/09 04:58:25;;;;;;;;;;;;;;;-144.99;100.00;52680.47;5016378;28;19959;-72
2022/12/09 05:00:52;;;;;;;;;;;;;;;-144.99;100.00;52676.38;5016676;28;19925;-72
2022/12/09 05:03:18;;;;;;;;;;;;;;;-144.99;100.00;52637.66;5003294;28;19940;-75
2022/12/09 05:05:45;;;;;;;;;;;;;;;-144.99;100.00;52651.94;5016077;28;19940;-74
2022/12/09 05:08:11;;;;;;;;;;;;;;;-144.99;100.00;52656.00;5017144;28;19930;-74
2022/12/09 05:10:41;;;;;;;;;;;;;;;-144.99;100.00;52653.97;5018382;28;19936;-74
2022/12/09 05:13:07;;;;;;;;;;;;;;;-144.99;100.00;52656.00;5011928;28;20002;-74
2022/12/09 05:15:34;;;;;;;;;;;;;;;-144.99;100.00;52668.22;5018592;28;20526;-74
2022/12/09 05:18:02;;;;;;;;;;;;;;;-144.99;100.00;52653.97;5011236;28;20341;-74
2022/12/09 05:20:28;;;;;;;;;;;;;;;-144.99;100.00;52656.00;5015798;28;19961;-74
2022/12/09 05:22:55;;;;;;;;;;;;;;;-144.99;100.00;52647.84;5014070;28;19944;-74
2022/12/09 05:25:21;;;;;;;;;;;;;;;-144.99;100.00;52623.38;5010484;28;19947;-74
2022/12/09 05:27:49;;;;;;;;;;;;;;;-144.99;100.00;52656.00;5010577;28;19926;-73
2022/12/09 05:30:16;;;;;;;;;;;;;;;-144.99;100.00;52639.69;5006644;28;19940;-73
2022/12/09 05:32:42;;;;;;;;;;;;;;;-144.99;100.00;52639.69;5020232;28;19925;-75
2022/12/09 05:35:10;;;;;;;;;;;;;;;-144.99;100.00;52647.84;5029810;28;19928;-73
2022/12/09 05:37:36;;;;;;;;;;;;;;;-144.99;100.00;52656.00;5015072;28;19960;-72
2022/12/09 05:40:03;;;;;;;;;;;;;;;-144.99;100.00;52668.22;5012838;28;19960;-72
2022/12/09 05:42:29;;;;;;;;;;;;;;;-144.99;100.00;52676.38;5005348;28;19959;-75
2022/12/09 05:44:57;;;;;;;;;;;;;;;-144.99;100.00;52635.63;5015368;28;19942;-74
2022/12/09 05:47:24;;;;;;;;;;;;;;;-144.99;100.00;52676.38;5004039;28;19958;-75
2022/12/09 05:49:50;;;;;;;;;;;;;;;-144.99;100.00;52619.31;5012304;28;19955;-78
2022/12/09 05:52:17;;;;;;;;;;;;;;;-144.99;100.00;52660.09;5009865;28;19970;-77
2022/12/09 05:54:43;;;;;;;;;;;;;;;-144.99;100.00;52662.13;5008492;28;19936;-77
2022/12/09 05:57:10;;;;;;;;;;;;;;;-144.99;100.00;52641.72;5015931;28;19960;-79
2022/12/09 05:59:36;;;;;;;;;;;;;;;-144.99;100.00;52653.97;5009738;28;20617;-80
2022/12/09 06:02:04;;;;;;;;;;;;;;;-144.99;100.00;52643.78;5012723;28;19967;-79
2022/12/09 06:04:31;;;;;;;;;;;;;;;-144.99;100.00;52674.34;4999000;28;19967;-76
2022/12/09 06:06:57;;;;;;;;;;;;;;;-144.99;100.00;52643.78;4317268;28;10000556;-75
2022/12/09 06:09:24;;;;;;;;;;;;;;;-144.99;100.00;52672.31;5006471;28;19953;-75
2022/12/09 06:11:50;;;;;;;;;;;;;;;-144.99;100.00;52609.13;5009539;28;19934;-74
2022/12/09 06:14:17;;;;;;;;;;;;;;;-144.99;100.00;52696.78;5024573;28;19959;-74
2022/12/09 06:16:43;;;;;;;;;;;;;;;-144.99;100.00;52639.69;5008621;28;19929;-74
2022/12/09 06:19:12;;;;;;;;;;;;;;;-144.99;100.00;52637.66;5005490;28;19957;-75
2022/12/09 06:21:39;;;;;;;;;;;;;;;-144.99;100.00;52637.66;5007417;28;20648;-75
2022/12/09 06:24:05;;;;;;;;;;;;;;;-144.99;100.00;52635.63;5000750;28;19953;-76
2022/12/09 06:26:32;;;;;;;;;;;;;;;-144.99;100.00;52619.31;5005951;28;19982;-76
2022/12/09 06:28:59;;;;;;;;;;;;;;;-144.99;100.00;52639.69;5010088;28;19991;-75
2022/12/09 06:31:26;;;;;;;;;;;;;;;-144.99;100.00;52647.84;5008853;28;19956;-75
2022/12/09 06:33:53;;;;;;;;;;;;;;;-144.99;100.00;52617.28;4997716;28;19948;-75
2022/12/09 06:36:21;;;;;;;;;;;;;;;-144.99;100.00;52653.97;5002463;28;19962;-77
2022/12/09 06:38:47;;;;;;;;;;;;;;;-144.99;100.00;52688.63;5003837;28;19941;-75
2022/12/09 06:41:14;;;;;;;;;;;;;;;-144.99;100.00;52651.94;5000268;28;20362;-75
2022/12/09 06:43:41;;;;;;;;;;;;;;;-144.99;100.00;52686.59;5005877;28;19964;-73
2022/12/09 06:46:11;;;;;;;;;;;;;;;-144.99;100.00;52631.53;5008482;28;20362;-76
2022/12/09 06:48:37;;;;;;;;;;;;;;;-144.99;100.00;52627.47;5007530;28;19964;-76
2022/12/09 06:51:04;;;;;;;;;;;;;;;-144.99;100.00;52682.50;5012951;28;19925;-74
2022/12/09 06:53:32;;;;;;;;;;;;;;;-144.99;100.00;52627.47;5034007;28;20032;-75
2022/12/09 06:56:01;;;;;;;;;;;;;;;-144.99;100.00;52627.47;5012097;28;19959;-74
2022/12/09 06:58:27;;;;;;;;;;;;;;;-144.99;100.00;52651.94;5008395;28;19990;-75
2022/12/09 07:00:54;;;;;;;;;;;;;;;-144.99;100.00;52680.47;5008646;28;19957;-75
2022/12/09 07:03:20;;;;;;;;;;;;;;;-144.99;100.00;52643.78;5000192;28;20352;-75
2022/12/09 07:05:47;;;;;;;;;;;;;;;-144.99;100.00;52623.38;5001051;28;20292;-75
2022/12/09 07:08:13;;;;;;;;;;;;;;;-144.99;100.00;52651.94;5009144;28;19950;-74
2022/12/09 07:10:44;;;;;;;;;;;;;;;-144.99;100.00;52643.78;5010654;28;19926;-75
2022/12/09 07:13:11;;;;;;;;;;;;;;;-144.99;100.00;52623.38;5010608;28;19959;-75
2022/12/09 07:15:37;;;;;;;;;;;;;;;-144.99;100.00;52639.69;5011413;28;19937;-76
2022/12/09 07:18:04;;;;;;;;;;;;;;;-144.99;100.00;52627.47;5012355;28;20503;-76
2022/12/09 07:20:30;;;;;;;;;;;;;;;-144.99;100.00;52615.25;5011496;28;19937;-75
2022/12/09 07:22:57;;;;;;;;;;;;;;;-144.99;100.00;52651.94;5011005;28;19933;-77
2022/12/09 07:25:23;;;;;;;;;;;;;;;-144.99;100.00;52651.94;5007932;28;19939;-76
2022/12/09 07:27:51;;;;;;;;;;;;;;;-144.99;100.00;52625.44;5012949;28;20020;-76
2022/12/09 07:30:18;;;;;;;;;;;;;;;-144.99;100.00;52651.94;5022138;28;19943;-75
2022/12/09 07:32:44;;;;;;;;;;;;;;;-144.99;100.00;52639.69;5017776;28;19964;-74
2022/12/09 07:35:11;;;;;;;;;;;;;;;-144.99;100.00;52641.72;5009353;28;19946;-76
2022/12/09 07:37:37;;;;;;;;;;;;;;;-144.99;100.00;52641.72;5030762;28;19957;-77
2022/12/09 07:40:04;;;;;;;;;;;;;;;-144.99;100.00;52631.53;5028720;28;19937;-76
2022/12/09 07:42:31;;;;;;;;;;;;;;;-144.99;100.00;52643.78;5030103;28;19924;-76
2022/12/09 07:44:59;;;;;;;;;;;;;;;-144.99;100.00;52635.63;5039003;28;19953;-78
2022/12/09 07:47:25;;;;;;;;;;;;;;;-144.99;100.00;52651.94;5032984;28;19929;-74
2022/12/09 07:49:52;;;;;;;;;;;;;;;-144.99;100.00;52627.47;5022387;28;19940;-72
2022/12/09 07:52:18;;;;;;;;;;;;;;;-144.99;100.00;52643.78;5020086;28;19933;-73
2022/12/09 07:54:45;;;;;;;;;;;;;;;-144.99;100.00;52668.22;5032665;28;19945;-73
2022/12/09 07:57:11;;;;;;;;;;;;;;;-144.99;100.00;52639.69;5031961;28;19990;-74
2022/12/09 07:59:38;;;;;;;;;;;;;;;-144.99;100.00;52680.47;5035137;28;19929;-73
2022/12/09 08:02:06;;;;;;;;;;;;;;;-144.99;100.00;52660.09;5033517;28;19925;-74
2022/12/09 08:07:00;;;;;;;;;;;;;;;-144.99;100.00;52607.09;5024901;28;19950;-76
2022/12/09 08:09:27;;;;;;;;;;;;;;;-144.99;100.00;52611.16;4670320;28;9999917;-76
2022/12/09 08:11:53;;;;;;;;;;;;;;;-144.99;100.00;52639.69;5033272;28;19980;-76
2022/12/09 08:14:20;;;;;;;;;;;;;;;-144.99;100.00;52643.78;5031632;28;19914;-76
2022/12/09 08:16:47;;;;;;;;;;;;;;;-144.99;100.00;52594.84;5031027;28;19948;-76
2022/12/09 08:19:14;;;;;;;;;;;;;;;-144.99;100.00;52678.44;5032923;28;19944;-77
2022/12/09 08:21:41;;;;;;;;;;;;;;;-144.99;100.00;52598.94;5030436;28;19926;-76
2022/12/09 08:24:08;;;;;;;;;;;;;;;-144.99;100.00;52651.94;5028634;28;19941;-75
2022/12/09 08:26:35;;;;;;;;;;;;;;;-144.99;100.00;52613.19;5033541;28;19951;-77
2022/12/09 08:29:06;;;;;;;;;;;;;;;-144.99;100.00;52635.63;5032073;28;19986;-77
2022/12/09 08:31:32;;;;;;;;;;;;;;;-144.99;100.00;52647.84;5026224;28;19941;-76
2022/12/09 08:34:02;;;;;;;;;;;;;;;-144.99;100.00;52611.16;5009728;28;19947;-75
2022/12/09 08:36:30;;;;;;;;;;;;;;;-144.99;100.00;52635.63;5025992;28;19973;-76
2022/12/09 08:38:58;;;;;;;;;;;;;;;-144.99;100.00;52647.84;5024099;28;19945;-76
2022/12/09 08:41:33;;;;;;;;;;;;;;;-144.99;100.00;52615.25;5015813;28;19971;-75
2022/12/09 08:44:00;;;;;;;;;;;;;;;-144.99;100.00;52643.78;5013038;28;20019;-75
2022/12/09 08:46:27;;;;;;;;;;;;;;;-144.99;100.00;52660.09;5020308;28;19971;-76
2022/12/09 08:48:53;;;;;;;;;;;;;;;-144.99;100.00;52627.47;5021076;28;20500;-75
2022/12/09 08:51:20;;;;;;;;;;;;;;;-144.99;100.00;52578.53;5008500;28;19958;-75
2022/12/09 08:53:47;;;;;;;;;;;;;;;-144.99;100.00;52639.69;5014619;28;19940;-77
2022/12/09 08:56:14;;;;;;;;;;;;;;;-144.99;100.00;52639.69;5019429;28;19956;-76
2022/12/09 08:58:41;;;;;;;;;;;;;;;-144.99;100.00;52627.47;5023175;28;19968;-77
2022/12/09 09:01:14;;;;;;;;;;;;;;;-144.99;100.00;52607.09;5015309;28;19964;-77
2022/12/09 09:03:40;;;;;;;;;;;;;;;-144.99;100.00;52627.47;5016103;28;19943;-77
2022/12/09 09:06:07;;;;;;;;;;;;;;;-144.99;100.00;52615.25;5022210;28;19963;-77
2022/12/09 09:08:34;;;;;;;;;;;;;;;-144.99;100.00;52623.38;5024783;28;19940;-76
2022/12/09 09:11:08;;;;;;;;;;;;;;;-144.99;100.00;52639.69;5015399;28;20476;-76
2022/12/09 09:13:35;;;;;;;;;;;;;;;-144.99;100.00;52627.47;5014836;28;19943;-75
2022/12/09 09:16:02;;;;;;;;;;;;;;;-144.99;100.00;52613.19;5012526;28;20411;-75
2022/12/09 09:18:28;;;;;;;;;;;;;;;-144.99;100.00;52611.16;5014760;28;19983;-74
2022/12/09 09:20:57;;;;;;;;;;;;;;;-144.99;100.00;52647.84;5010098;28;20367;-76
2022/12/09 09:23:24;;;;;;;;;;;;;;;-144.99;100.00;52619.31;5012957;28;19929;-76
2022/12/09 09:25:50;;;;;;;;;;;;;;;-144.99;100.00;52598.94;5014520;28;20351;-74
2022/12/09 09:28:18;;;;;;;;;;;;;;;-144.99;100.00;52611.16;5009528;28;19948;-75
2022/12/09 09:30:49;;;;;;;;;;;;;;;-144.99;100.00;52631.53;5018587;28;20199;-75
2022/12/09 09:33:15;;;;;;;;;;;;;;;-144.99;100.00;52633.59;5019991;28;19966;-75
2022/12/09 09:35:42;;;;;;;;;;;;;;;-144.99;100.00;52603.00;5018670;28;19937;-75
2022/12/09 09:38:08;;;;;;;;;;;;;;;-144.99;100.00;52619.31;5017291;28;19976;-75
2022/12/09 09:40:35;;;;;;;;;;;;;;;-144.99;100.00;52615.25;5020030;28;19956;-75
2022/12/09 09:43:02;;;;;;;;;;;;;;;-144.99;100.00;52582.63;5022866;28;19964;-74
2022/12/09 09:45:30;;;;;;;;;;;;;;;-144.99;98.89;52582.63;5023550;28;19926;-75
2022/12/09 09:47:58;;;;;;;;;;;;;;;-144.99;98.00;52588.75;5025907;28;19945;-75
2022/12/09 09:50:31;;;;;;;;;;;;;;;-144.99;92.56;52566.31;5017718;28;19940;-76
2022/12/09 09:52:58;;;;;;;;;;;;;;;-144.99;90.36;52554.09;5021729;28;19947;-77
2022/12/09 09:55:29;;;;;;;;;;;;;;;-144.99;87.31;52582.63;5023009;28;19979;-77
2022/12/09 09:57:58;;;;;;;;;;;;;;;-144.99;82.55;52552.03;5023198;28;19963;-76
2022/12/09 10:00:27;;;;;;;;;;;;;;;-144.99;76.18;52554.09;5020749;28;19956;-77
2022/12/09 10:02:58;;;;;;;;;;;;;;;-144.99;74.62;52492.94;5022354;28;19971;-77
2022/12/09 10:05:28;;;;;;;;;;;;;;;-144.99;72.31;52554.09;5016493;28;20730;-75
2022/12/09 10:07:58;;;;;;;;;;;;;;;-144.99;67.49;52513.31;5017778;28;19985;-77
2022/12/09 10:10:33;;;;;;;;;;;;;;;-144.99;65.84;52509.25;5025639;28;19938;-77
2022/12/09 10:13:06;;;;;;;;;;;;;;;-144.99;65.73;52468.47;5029778;28;19939;-77
2022/12/09 10:15:37;;;;;;;;;;;;;;;-144.99;60.90;52492.94;5028205;28;19960;-77
2022/12/09 10:18:11;;;;;;;;;;;;;;;-144.99;58.56;52460.31;5023811;28;19966;-77
2022/12/09 10:20:38;;;;;;;;;;;;;;;-144.99;57.41;52446.06;5019928;28;19980;-76
2022/12/09 10:23:06;;;;;;;;;;;;;;;-144.99;55.98;52431.78;5031678;28;20333;-76
2022/12/09 10:25:33;;;;;;;;;;;;;;;-144.99;53.62;52399.19;5032563;28;19962;-76
2022/12/09 10:28:05;;;;;;;;;;;;;;;-144.99;53.80;52437.91;5020395;28;19973;-76
2022/12/09 10:30:31;;;;;;;;;;;;;;;-144.99;51.99;52452.16;5033261;28;19925;-76
2022/12/09 10:32:58;;;;;;;;;;;;;;;-144.99;50.69;52407.31;5032341;28;19960;-77
2022/12/09 10:35:26;;;;;;;;;;;;;;;-144.99;51.37;52407.31;5029456;28;20007;-77
2022/12/09 10:37:54;;;;;;;;;;;;;;;-144.99;50.66;52366.56;5028393;28;19955;-76
2022/12/09 10:40:22;;;;;;;;;;;;;;;-144.99;47.71;52356.38;5028431;28;19955;-76
2022/12/09 10:45:34;;;;;;;;;;;;;;;-144.99;46.13;52338.03;5023792;28;19936;-76
2022/12/09 10:48:01;;;;;;;;;;;;;;;-144.99;45.83;52358.41;5019399;28;19948;-75
2022/12/09 10:50:31;;;;;;;;;;;;;;;-144.99;46.05;52399.19;5023137;28;19983;-76
2022/12/09 10:53:02;;;;;;;;;;;;;;;-144.99;46.88;52403.25;5024745;28;19944;-77
2022/12/09 10:55:30;;;;;;;;;;;;;;;-144.99;47.75;52358.41;5013997;28;19952;-75
2022/12/09 10:58:09;;;;;;;;;;;;;;;-144.99;47.14;52317.66;5011272;28;20481;-76
2022/12/09 11:00:36;;;;;;;;;;;;;;;-144.99;45.44;52362.50;5017414;28;19944;-76
2022/12/09 11:03:02;;;;;;;;;;;;;;;-144.99;45.39;52380.84;5017311;28;20014;-76
2022/12/09 11:05:33;;;;;;;;;;;;;;;-144.99;47.07;52378.78;5015877;28;19986;-76
2022/12/09 11:08:00;;;;;;;;;;;;;;;-144.99;47.07;52354.34;5009161;28;19960;-77
2022/12/09 11:10:27;;;;;;;;;;;;;;;-144.99;46.05;52354.34;5005167;28;20260;-76
2022/12/09 11:12:57;;;;;;;;;;;;;;;-144.99;45.71;52350.25;5017809;28;19940;-76
2022/12/09 11:15:28;;;;;;;;;;;;;;;-144.99;46.03;52370.63;5018892;28;19963;-78
2022/12/09 11:17:56;;;;;;;;;;;;;;;-144.99;45.22;52342.09;5017644;28;19968;-76
2022/12/09 11:20:24;;;;;;;;;;;;;;;-144.99;44.95;52362.50;5024498;28;19940;-76
2022/12/09 11:23:00;;;;;;;;;;;;;;;-144.99;44.59;52360.44;5017286;28;19940;-76
2022/12/09 11:25:28;;;;;;;;;;;;;;;-144.99;45.37;52348.22;5004783;28;19965;-76
2022/12/09 11:27:56;;;;;;;;;;;;;;;-144.99;44.87;52362.50;5007532;28;19969;-76
2022/12/09 11:30:23;;;;;;;;;;;;;;;-144.99;45.66;52370.63;5017801;28;19925;-76
2022/12/09 11:32:55;;;;;;;;;;;;;;;-144.99;44.08;52370.63;5017802;28;19987;-76
2022/12/09 11:35:25;;;;;;;;;;;;;;;-144.99;44.44;52358.41;5019549;28;19975;-76
2022/12/09 11:37:52;;;;;;;;;;;;;;;-144.99;44.39;52366.56;5011618;28;19956;-75
2022/12/09 11:40:20;;;;;;;;;;;;;;;-144.99;44.57;52384.91;5014436;28;20404;-76
2022/12/09 11:42:49;;;;;;;;;;;;;;;-144.99;44.46;52360.44;5008912;28;19957;-76
2022/12/09 11:45:18;;;;;;;;;;;;;;;-144.99;42.51;52372.69;5019459;28;20305;-76
2022/12/09 11:47:45;;;;;;;;;;;;;;;-144.99;41.86;52297.25;5012300;28;20269;-75
2022/12/09 11:50:15;;;;;;;;;;;;;;;-144.99;40.96;52313.56;5011639;28;20024;-76
2022/12/09 11:52:42;;;;;;;;;;;;;;;-144.99;41.42;52344.16;5017994;28;19936;-76
2022/12/09 11:55:15;;;;;;;;;;;;;;;-144.99;41.73;52366.56;5008081;28;20031;-76
2022/12/09 11:57:46;;;;;;;;;;;;;;;-144.99;42.70;52362.50;5010689;28;19972;-76
2022/12/09 12:00:16;;;;;;;;;;;;;;;-144.99;43.00;52342.09;5004027;28;19942;-78
2022/12/09 12:02:45;;;;;;;;;;;;;;;-144.99;42.09;52358.41;5003319;28;19960;-76
2022/12/09 12:05:17;;;;;;;;;;;;;;;-144.99;41.58;52350.25;5005456;28;19971;-77
2022/12/09 12:07:46;;;;;;;;;;;;;;;-144.99;41.72;52315.59;5007102;28;20029;-75
2022/12/09 12:10:15;;;;;;;;;;;;;;;-144.99;41.51;52346.19;5006198;28;20617;-76
2022/12/09 12:12:47;;;;;;;;;;;;;;;-144.99;40.24;52317.66;5011465;28;19929;-76
2022/12/09 12:15:17;;;;;;;;;;;;;;;-144.99;40.84;52325.81;5012240;28;19925;-76
2022/12/09 12:17:49;;;;;;;;;;;;;;;-144.99;39.84;52342.09;5014014;28;20027;-76
2022/12/09 12:20:15;;;;;;;;;;;;;;;-144.99;39.89;52354.34;4999765;28;20000;-75
2022/12/09 12:23:02;;;;;;;;;;;;;;;-144.99;40.30;52342.09;5010124;28;20429;-76
2022/12/09 12:25:40;;;;;;;;;;;;;;;-144.99;40.25;52346.19;5004458;28;20024;-76
2022/12/09 12:28:21;;;;;;;;;;;;;;;-144.99;39.59;52346.19;5008520;28;19986;-75